Weybourne, United Kingdom
Current Conditions -  °F | °C
As of 7:20 PM on Friday 21 Nov 2014 (Local Time) from EGSH Reporting Station
Light Rain Light Rain  
Wind Chill: 45°   Ceiling: Unl
Heat Index: 48°   Visibility: 6mi
Dew Point: 46°   Wind: 7mph
Humidity: 93%   Direction: 130°SE
Pressure: 30"   Gusts: NA
Location:  52.94°N, 1.14°E
Report Text: EGSH 211920Z 13006KT 090V170 9999 -RA SCT015 09/08 Q1016 TEMPO 4000 RA BKN014
Loading
Personal Weather Stations






























Interactive Weather Map New forecast layout! Learn more

10-Day Weather Forecast

Advertisements
Track Severe Weather on mobile